Time;durP1;ratioP1;P1;durP2;ratioP2;P2;SDS_P1;SDS_P2;PMS_P1;PMS_P2;Temp;Humidity;BMP_temperature;BMP_pressure;BME280_temperature;BME280_humidity;BME280_pressure;Samples;Min_cycle;Max_cycle;Signal;HPM_P1;HPM_P2
2023/06/18 00:00:42;;;;;;;6.80;6.10;;;;;;;21.47;51.33;101224.31;4857629;29;20032;-96
2023/06/18 00:03:07;;;;;;;6.75;6.15;;;;;;;21.43;51.39;101220.81;4865385;29;20049;-96
2023/06/18 00:05:33;;;;;;;8.75;6.80;;;;;;;21.36;51.60;101225.34;4861323;29;20121;-95
2023/06/18 00:08:00;;;;;;;7.75;6.95;;;;;;;21.37;51.67;101224.44;4857576;29;20449;-96
2023/06/18 00:10:26;;;;;;;6.82;6.13;;;;;;;21.36;51.94;101222.69;4861904;29;20029;-96
2023/06/18 00:12:53;;;;;;;7.43;6.50;;;;;;;21.31;52.23;101227.19;4863542;29;20032;-96
2023/06/18 00:15:19;;;;;;;7.50;6.80;;;;;;;21.26;51.76;101223.75;4866099;29;20460;-96
2023/06/18 00:17:45;;;;;;;7.63;6.90;;;;;;;21.21;51.85;101224.69;4863472;29;20108;-96
2023/06/18 00:20:13;;;;;;;7.15;6.45;;;;;;;21.13;52.69;101209.78;4862072;29;20408;-96
2023/06/18 00:22:39;;;;;;;7.63;6.93;;;;;;;21.13;53.13;101215.09;4863030;29;20544;-96
2023/06/18 00:25:05;;;;;;;8.07;6.30;;;;;;;21.09;51.97;101216.03;4857805;29;20054;-96
2023/06/18 00:27:31;;;;;;;7.18;6.15;;;;;;;21.11;52.35;101210.69;4857454;29;20037;-96
2023/06/18 00:30:04;;;;;;;7.70;6.45;;;;;;;21.06;52.73;101212.53;4867692;29;20033;-96
2023/06/18 00:32:32;;;;;;;6.40;5.80;;;;;;;21.04;52.78;101209.03;4860298;29;20165;-96
2023/06/18 00:35:00;;;;;;;6.80;6.10;;;;;;;21.06;53.48;101220.47;4876665;23;20057;-61
2023/06/18 00:37:26;;;;;;;7.35;6.65;;;;;;;21.00;53.77;101213.47;4858417;29;20063;-63
2023/06/18 00:39:51;;;;;;;6.97;6.28;;;;;;;20.94;53.50;101206.53;4856448;29;20120;-63
2023/06/18 00:42:17;;;;;;;6.90;6.30;;;;;;;20.89;53.13;101208.34;4858000;29;20492;-63
2023/06/18 00:44:42;;;;;;;7.15;6.38;;;;;;;20.87;53.60;101196.91;4877296;23;20093;-96
2023/06/18 00:47:11;;;;;;;7.30;6.60;;;;;;;20.83;53.81;101198.72;4834178;29;20033;-96
2023/06/18 00:49:37;;;;;;;;;;;;;;;20.89;52.35;101194.25;4836352;29;20031;-95
2023/06/18 00:52:03;;;;;;;7.82;6.82;;;;;;;20.76;54.34;101188.22;4832163;29;19924;-96
2023/06/18 00:54:32;;;;;;;6.82;6.22;;;;;;;20.72;54.53;101187.38;4862767;29;20448;-96
2023/06/18 00:56:59;;;;;;;7.70;6.90;;;;;;;20.64;54.26;101186.59;4879485;23;20421;-62
2023/06/18 00:59:25;;;;;;;7.38;6.68;;;;;;;20.60;54.14;101188.38;4961399;23;21108;-60
2023/06/18 01:01:55;;;;;;;7.35;6.65;;;;;;;20.61;54.89;101189.25;5017346;23;20515;-60
2023/06/18 01:04:23;;;;;;;7.40;6.63;;;;;;;20.57;55.20;101188.41;4856945;29;20786;-60
2023/06/18 01:09:26;;;;;;;8.07;7.28;;;;;;;20.56;54.84;101183.16;5029223;23;20065;-60
2023/06/18 01:14:28;;;;;;;8.35;7.55;;;;;;;20.44;55.45;101192.13;5347452;23;20080;-60
2023/06/18 01:16:55;;;;;;;8.50;7.70;;;;;;;20.46;55.50;101190.31;5229237;23;20060;-60
2023/06/18 01:24:23;;;;;;;9.50;8.50;;;;;;;20.45;55.46;101184.16;5127338;23;20449;-60
2023/06/18 01:26:51;;;;;;;9.50;8.60;;;;;;;20.45;55.41;101183.25;5241737;23;20506;-60
2023/06/18 01:29:16;;;;;;;9.20;8.32;;;;;;;20.44;55.38;101179.75;5027923;23;20084;-60
2023/06/18 01:31:44;;;;;;;9.30;8.50;;;;;;;20.41;55.77;101173.63;5001845;23;20086;-63
2023/06/18 01:34:10;;;;;;;8.60;7.80;;;;;;;20.38;55.25;101177.19;5036201;23;20081;-60
2023/06/18 01:36:35;;;;;;;9.10;8.18;;;;;;;20.34;55.47;101170.16;5060412;23;20417;-61
2023/06/18 01:39:09;;;;;;;9.68;8.68;;;;;;;20.29;55.42;101182.56;5117850;23;20036;-60
2023/06/18 01:41:38;;;;;;;9.88;8.98;;;;;;;20.23;56.22;101174.69;4995348;23;20073;-62
2023/06/18 01:44:08;;;;;;;9.95;8.98;;;;;;;20.18;56.45;101171.25;5083657;23;20046;-60
2023/06/18 01:46:33;;;;;;;9.18;8.38;;;;;;;20.13;56.16;101166.88;4934123;23;20089;-96
2023/06/18 01:49:07;;;;;;;9.35;8.55;;;;;;;20.10;56.31;101160.72;4872511;29;20029;-96
2023/06/18 01:51:35;;;;;;;9.68;8.80;;;;;;;20.05;56.59;101165.22;4877227;29;20560;-96
2023/06/18 01:54:03;;;;;;;9.63;8.63;;;;;;;19.97;56.59;101163.53;4876163;29;20707;-96
2023/06/18 01:56:33;;;;;;;9.75;8.55;;;;;;;19.96;57.13;101167.03;4879258;29;20076;-95
2023/06/18 01:59:01;;;;;;;9.73;8.82;;;;;;;19.91;57.25;101163.56;4872265;29;20151;-96
2023/06/18 02:01:30;;;;;;;9.60;8.70;;;;;;;19.88;57.56;101163.59;4878537;29;20462;-96
2023/06/18 02:03:56;;;;;;;8.97;8.03;;;;;;;19.82;57.08;101168.94;4879978;29;20285;-95
2023/06/18 02:06:21;;;;;;;10.15;9.25;;;;;;;19.79;57.17;101156.63;4874820;29;20285;-96
2023/06/18 02:08:49;;;;;;;9.77;8.88;;;;;;;19.74;57.73;101160.16;4874871;29;20032;-96
2023/06/18 02:11:20;;;;;;;9.55;8.52;;;;;;;19.69;57.83;101157.56;4875964;29;20060;-95
2023/06/18 02:13:46;;;;;;;10.00;9.10;;;;;;;19.62;58.03;101155.88;4876319;29;20057;-94
2023/06/18 02:16:11;;;;;;;10.25;9.35;;;;;;;19.53;58.35;101151.56;4872624;29;20025;-95
2023/06/18 02:18:37;;;;;;;10.07;8.98;;;;;;;19.52;58.25;101156.84;4874388;29;20025;-96
2023/06/18 02:21:02;;;;;;;10.10;9.20;;;;;;;19.46;58.19;101156.03;4877805;29;20479;-96
2023/06/18 02:23:31;;;;;;;10.18;9.27;;;;;;;19.42;58.18;101153.41;4872345;29;20117;-96
2023/06/18 02:25:57;;;;;;;10.15;9.15;;;;;;;19.42;58.07;101150.75;4869528;29;20030;-96
2023/06/18 02:28:23;;;;;;;10.63;9.63;;;;;;;19.36;58.81;101153.47;4988546;23;20053;-62
2023/06/18 02:30:49;;;;;;;11.10;9.93;;;;;;;19.26;59.61;101150.00;5023541;23;20175;-62
2023/06/18 02:33:18;;;;;;;10.75;9.75;;;;;;;19.26;59.11;101153.53;5005522;23;20053;-63
2023/06/18 02:35:43;;;;;;;10.68;9.57;;;;;;;19.24;59.18;101147.38;5040686;23;20024;-60
2023/06/18 02:38:08;;;;;;;10.73;9.65;;;;;;;19.23;59.36;101152.66;4991126;23;20072;-60
2023/06/18 02:43:09;;;;;;;11.13;9.85;;;;;;;19.21;59.28;101139.47;4882077;23;20053;-60
2023/06/18 02:48:35;;;;;;;10.27;9.30;;;;;;;19.07;58.96;101147.53;5145377;23;1117966;31
2023/06/18 02:51:01;;;;;;;11.25;10.13;;;;;;;18.93;60.26;101149.38;4930020;23;20704;-60
2023/06/18 02:55:58;;;;;;;11.18;10.15;;;;;;;18.91;60.69;101143.19;4922912;23;20057;-60
2023/06/18 03:00:48;;;;;;;12.45;10.20;;;;;;;18.83;61.54;101140.59;5181153;23;20057;-60
2023/06/18 03:03:14;;;;;;;11.68;10.68;;;;;;;18.82;61.28;101135.31;5052664;23;20160;-60
2023/06/18 03:05:39;;;;;;;11.43;10.23;;;;;;;18.76;61.79;101138.88;5008747;23;20072;-60
2023/06/18 03:08:06;;;;;;;11.18;10.18;;;;;;;18.76;60.93;101138.88;5040400;23;20114;-60
2023/06/18 03:13:05;;;;;;;10.50;9.50;;;;;;;18.69;61.56;101145.06;4948243;23;20057;-60
2023/06/18 03:15:31;;;;;;;10.95;9.95;;;;;;;18.65;61.55;101145.97;5143136;23;20061;-60
2023/06/18 03:17:56;;;;;;;10.77;9.77;;;;;;;18.64;61.96;101154.75;4865191;29;20041;-60
2023/06/18 03:20:23;;;;;;;11.93;10.18;;;;;;;18.64;61.64;101154.75;5025557;23;20071;-60
2023/06/18 03:22:49;;;;;;;11.38;10.27;;;;;;;18.56;62.15;101144.25;4965199;23;20061;-60
2023/06/18 03:25:14;;;;;;;11.43;10.32;;;;;;;18.60;61.91;101149.50;5012688;23;20071;-60
2023/06/18 03:27:40;;;;;;;12.30;11.10;;;;;;;18.47;62.92;101147.81;5022453;23;20060;-60
2023/06/18 03:30:06;;;;;;;11.95;10.95;;;;;;;18.34;63.43;101143.47;5021378;23;20029;-60
2023/06/18 03:32:32;;;;;;;12.23;10.98;;;;;;;18.27;64.06;101152.28;5048740;23;20080;-60
2023/06/18 03:34:58;;;;;;;11.85;10.77;;;;;;;18.19;64.32;101147.00;5106735;23;20170;-59
2023/06/18 03:37:23;;;;;;;12.38;11.18;;;;;;;18.08;65.44;101150.56;5352158;23;20072;-60
2023/06/18 03:39:49;;;;;;;12.90;11.70;;;;;;;18.06;65.87;101143.53;5022973;23;20064;-60
2023/06/18 03:42:15;;;;;;;12.95;11.65;;;;;;;17.98;65.88;101146.19;5015115;23;20973;-60
2023/06/18 03:44:40;;;;;;;13.45;12.15;;;;;;;17.89;66.12;101147.06;5032591;23;20402;-60
2023/06/18 03:49:39;;;;;;;12.85;11.52;;;;;;;17.56;67.42;101150.63;5056107;23;20042;-60
2023/06/18 03:52:05;;;;;;;13.82;12.52;;;;;;;17.57;67.41;101149.75;4851413;29;20113;-60
2023/06/18 03:54:31;;;;;;;12.73;11.52;;;;;;;17.63;67.43;101156.78;5039651;23;20061;-60
2023/06/18 03:56:57;;;;;;;12.68;11.57;;;;;;;17.67;67.11;101153.22;4852374;29;20034;-61
2023/06/18 03:59:23;;;;;;;12.73;11.52;;;;;;;17.76;66.82;101155.88;5027265;23;20065;-60
2023/06/18 04:04:19;;;;;;;12.77;11.57;;;;;;;17.86;66.54;101157.59;5186230;23;20072;-60
2023/06/18 04:06:44;;;;;;;13.52;12.27;;;;;;;17.87;66.59;101169.91;4854755;29;20509;-60
2023/06/18 04:09:10;;;;;;;14.07;12.77;;;;;;;17.90;66.44;101159.41;4993873;23;20152;-60
2023/06/18 04:11:38;;;;;;;12.50;11.40;;;;;;;17.88;66.84;101168.16;5049294;23;20024;-60
2023/06/18 04:14:04;;;;;;;14.50;13.10;;;;;;;17.67;69.07;101166.41;5034725;23;20053;-60
2023/06/18 04:19:04;;;;;;;14.45;13.15;;;;;;;17.31;71.17;101174.31;4949678;23;20073;-60
2023/06/18 04:26:29;;;;;;;;;;;;;;;17.43;68.06;101173.44;4902523;23;20040;-60
2023/06/18 04:28:55;;;;;;;13.07;11.82;;;;;;;17.50;69.71;101169.94;5012570;23;20528;-60
2023/06/18 04:31:20;;;;;;;14.18;12.88;;;;;;;17.57;70.12;101170.81;5083966;23;20061;-60
2023/06/18 04:36:20;;;;;;;13.68;12.40;;;;;;;17.76;69.81;101171.69;5037784;23;20125;-60
2023/06/18 04:38:46;;;;;;;13.75;12.25;;;;;;;17.83;69.88;101162.00;4857046;29;20037;-60
2023/06/18 04:41:11;;;;;;;14.98;13.45;;;;;;;17.90;69.38;101163.78;5145768;23;20045;-60
2023/06/18 04:46:11;;;;;;;14.52;13.15;;;;;;;17.97;69.64;101159.38;4902528;23;20058;-60
2023/06/18 04:48:38;;;;;;;15.43;13.88;;;;;;;17.97;69.37;101162.00;5032517;23;20068;-60
2023/06/18 04:51:03;;;;;;;15.73;14.25;;;;;;;17.98;69.17;101151.47;5022697;23;20053;-60
2023/06/18 04:56:03;;;;;;;15.90;14.50;;;;;;;18.02;69.46;101152.34;5034620;23;20062;-59
2023/06/18 04:58:34;;;;;;;16.13;14.57;;;;;;;17.98;69.12;101156.75;4852724;29;20039;-61
2023/06/18 05:01:01;;;;;;;16.45;14.95;;;;;;;18.00;69.61;101154.09;5048035;23;20056;-60
2023/06/18 05:08:26;;;;;;;;;;;;;;;18.14;67.17;101169.91;5169414;23;20593;-60
2023/06/18 05:13:22;;;;;;;17.33;15.82;;;;;;;18.16;69.68;101163.75;4831837;29;20278;-60
2023/06/18 05:15:47;;;;;;;17.90;16.20;;;;;;;18.16;68.89;101169.03;4833694;29;20414;-60
2023/06/18 05:20:48;;;;;;;18.20;16.48;;;;;;;18.21;68.38;101169.00;4926379;23;21105;-60
2023/06/18 05:25:48;;;;;;;18.30;16.65;;;;;;;18.28;69.31;101169.84;5131357;23;20064;-60
2023/06/18 05:28:13;;;;;;;17.73;16.23;;;;;;;18.36;69.82;101173.34;4837152;29;20026;-60
2023/06/18 05:30:39;;;;;;;18.30;16.67;;;;;;;18.42;69.05;101178.59;5018775;23;20073;-60
2023/06/18 05:38:08;;;;;;;17.42;15.82;;;;;;;18.49;71.10;101179.47;5061635;23;20042;-60
2023/06/18 05:40:34;;;;;;;17.92;16.33;;;;;;;18.46;71.80;101174.19;5122288;23;20387;-60
2023/06/18 05:42:59;;;;;;;16.95;15.45;;;;;;;18.44;71.05;101174.19;5045993;23;20068;-61
2023/06/18 05:45:24;;;;;;;16.08;14.63;;;;;;;18.48;70.26;101186.50;5026329;23;20580;-60
2023/06/18 05:47:50;;;;;;;16.08;14.48;;;;;;;18.57;71.19;101182.94;5192728;23;21078;-60
2023/06/18 05:50:15;;;;;;;16.33;14.88;;;;;;;18.60;72.37;101177.66;4862696;29;20119;-60
2023/06/18 05:55:10;;;;;;;;;;;;;;;18.79;68.03;101182.84;5125004;23;21079;-62
2023/06/18 05:57:36;;;;;;;14.65;13.35;;;;;;;18.85;68.98;101181.03;4987616;23;19924;-63
2023/06/18 06:00:01;;;;;;;15.45;13.70;;;;;;;18.93;68.62;101184.56;5049642;23;20065;-62
2023/06/18 06:05:02;;;;;;;13.80;12.45;;;;;;;19.08;67.82;101183.59;5050592;23;21252;-62
2023/06/18 06:07:28;;;;;;;13.05;11.88;;;;;;;19.18;67.23;101187.06;4977152;23;20054;-62
2023/06/18 06:09:53;;;;;;;13.18;11.98;;;;;;;19.25;66.76;101180.84;4857377;29;20033;-61
2023/06/18 06:12:19;;;;;;;12.85;11.65;;;;;;;19.35;68.40;101184.31;4937346;23;20046;-62
2023/06/18 06:14:44;;;;;;;11.15;10.15;;;;;;;19.44;65.25;101181.56;5094281;23;21259;-62
2023/06/18 06:17:09;;;;;;;11.40;10.30;;;;;;;19.57;62.73;101185.00;4973492;23;20061;-62
2023/06/18 06:19:35;;;;;;;11.10;9.85;;;;;;;19.71;62.06;101187.53;5123133;23;20087;-62
2023/06/18 06:22:00;;;;;;;10.07;8.85;;;;;;;19.85;60.08;101187.44;5051481;23;20023;-62
2023/06/18 06:24:25;;;;;;;9.77;8.77;;;;;;;20.00;60.20;101182.88;5044059;23;20477;-62
2023/06/18 06:26:50;;;;;;;8.88;8.07;;;;;;;20.14;61.07;101195.06;5022892;23;20552;-62
2023/06/18 06:29:16;;;;;;;7.50;6.80;;;;;;;20.25;57.85;101192.31;5025123;23;20049;-63
2023/06/18 06:31:41;;;;;;;9.23;8.43;;;;;;;20.36;59.04;101191.31;5035398;23;20053;-62
2023/06/18 06:34:07;;;;;;;9.45;8.52;;;;;;;20.43;59.94;101195.66;4838606;29;20037;-62
2023/06/18 06:36:32;;;;;;;7.97;7.07;;;;;;;20.46;61.25;101198.25;5115605;23;20125;-62
2023/06/18 06:38:57;;;;;;;7.18;6.55;;;;;;;20.49;61.77;101214.09;5015611;23;20065;-62
2023/06/18 06:41:23;;;;;;;9.07;7.82;;;;;;;20.54;57.83;101236.13;4850717;29;20072;-62
2023/06/18 06:48:53;;;;;;;7.00;6.30;;;;;;;20.70;56.11;101247.44;5097541;23;19947;-62
2023/06/18 06:51:18;;;;;;;7.32;6.63;;;;;;;20.69;56.95;101237.72;5055793;23;20054;-61
2023/06/18 06:53:43;;;;;;;7.35;6.65;;;;;;;20.71;56.04;101241.25;4844482;29;20093;-62
2023/06/18 06:56:10;;;;;;;9.88;6.63;;;;;;;20.74;56.97;101240.31;4844684;29;20412;-62
2023/06/18 06:58:35;;;;;;;8.27;7.07;;;;;;;20.79;53.85;101234.06;4990791;23;20060;-62
2023/06/18 07:01:00;;;;;;;7.70;6.78;;;;;;;20.87;55.08;101236.63;5030180;23;20057;-62
2023/06/18 07:03:26;;;;;;;7.28;6.57;;;;;;;20.95;55.52;101241.81;5104961;23;20049;-62
2023/06/18 07:05:51;;;;;;;7.82;5.90;;;;;;;21.01;51.75;101239.97;5026337;23;20620;-62
2023/06/18 07:08:17;;;;;;;7.13;5.68;;;;;;;21.11;51.54;101239.84;5025584;23;20099;-62
2023/06/18 07:10:42;;;;;;;6.85;5.40;;;;;;;21.23;50.57;101239.66;4847802;29;20045;-62
2023/06/18 07:15:32;;;;;;;7.18;5.78;;;;;;;21.42;48.99;101240.28;5118753;23;20070;-63
2023/06/18 07:17:58;;;;;;;6.75;5.90;;;;;;;21.51;50.20;101241.94;5045471;23;20036;-62
2023/06/18 07:22:53;;;;;;;6.97;6.28;;;;;;;21.59;48.89;101253.28;5285955;23;20028;-62
2023/06/18 07:25:18;;;;;;;7.95;6.28;;;;;;;21.65;50.12;101245.25;5206845;23;1108724;-62
2023/06/18 07:27:43;;;;;;;6.78;6.18;;;;;;;21.65;49.36;101241.72;5115261;23;20194;-62
2023/06/18 07:32:41;;;;;;;7.60;6.35;;;;;;;21.66;50.25;101243.47;5013631;23;21075;-62
2023/06/18 07:37:32;;;;;;;7.13;6.43;;;;;;;21.69;50.48;101241.63;4957764;23;20112;-63
2023/06/18 07:39:58;;;;;;;7.70;6.90;;;;;;;21.75;50.04;101237.16;4968105;23;20053;-62
2023/06/18 07:47:23;;;;;;;6.80;6.20;;;;;;;21.80;51.81;101236.16;4939135;23;20053;-63
2023/06/18 07:49:48;;;;;;;7.55;6.85;;;;;;;21.87;52.04;101229.00;5173002;23;20055;-63
2023/06/18 07:52:14;;;;;;;8.18;7.38;;;;;;;21.93;50.69;101231.53;5040118;23;20074;-63
2023/06/18 07:54:39;;;;;;;7.95;7.18;;;;;;;21.99;51.64;101230.56;4848604;29;20026;-63
2023/06/18 07:57:04;;;;;;;7.90;7.10;;;;;;;22.04;52.60;101239.28;5168373;23;20816;-63
2023/06/18 07:59:30;;;;;;;7.50;6.80;;;;;;;22.11;51.44;101230.31;5020004;23;21030;-63
2023/06/18 08:01:56;;;;;;;7.93;7.15;;;;;;;22.16;50.96;101230.22;5110335;23;20401;-62
2023/06/18 08:04:21;;;;;;;9.35;7.30;;;;;;;22.18;51.80;101223.13;4989944;23;20058;-62
2023/06/18 08:06:48;;;;;;;10.35;7.25;;;;;;;22.22;51.74;101228.34;5019032;23;21274;-62
2023/06/18 08:09:14;;;;;;;8.25;7.35;;;;;;;22.31;52.21;101227.28;4854911;29;20033;-62
2023/06/18 08:14:10;;;;;;;7.82;7.03;;;;;;;22.44;52.69;101221.78;4956777;23;20071;-60
2023/06/18 08:16:37;;;;;;;8.18;7.38;;;;;;;22.53;52.86;101225.13;5019623;23;20065;-60
2023/06/18 08:19:02;;;;;;;8.35;7.53;;;;;;;22.64;53.31;101224.91;4909369;23;20416;-59
2023/06/18 08:21:28;;;;;;;8.48;7.55;;;;;;;22.77;52.00;101221.97;5167751;23;20040;-60
2023/06/18 08:23:53;;;;;;;9.68;7.80;;;;;;;22.84;51.12;101210.31;4948259;23;20191;-60
2023/06/18 08:28:50;;;;;;;7.47;6.78;;;;;;;22.95;51.56;101223.38;4881563;23;20057;-60
2023/06/18 08:31:16;;;;;;;8.00;7.20;;;;;;;23.01;51.86;101217.94;5076203;23;20032;-60
2023/06/18 08:33:41;;;;;;;7.65;6.95;;;;;;;23.00;51.94;101213.50;5087358;23;20057;-60
2023/06/18 08:36:07;;;;;;;7.97;7.17;;;;;;;23.03;51.56;101217.00;5131262;23;20049;-60
2023/06/18 08:38:32;;;;;;;10.02;6.97;;;;;;;23.03;53.07;101213.47;5045321;23;20329;-60
2023/06/18 08:41:05;;;;;;;8.32;7.15;;;;;;;23.05;51.84;101211.63;4857543;29;20028;-61
2023/06/18 08:43:36;;;;;;;7.40;6.70;;;;;;;23.02;53.37;101214.38;5171690;23;20989;-60
2023/06/18 08:46:12;;;;;;;6.65;6.13;;;;;;;23.04;54.85;101217.84;5065695;23;20064;-61
2023/06/18 08:51:11;;;;;;;8.05;6.82;;;;;;;23.04;55.15;101215.19;5030586;23;20058;-59
2023/06/18 08:58:50;;;;;;;7.90;7.20;;;;;;;22.96;55.97;101214.50;4863080;23;20133;-60
2023/06/18 09:01:16;;;;;;;8.15;6.97;;;;;;;22.90;56.16;101218.19;4990759;23;20492;-60
2023/06/18 09:06:12;;;;;;;7.57;6.88;;;;;;;22.84;56.44;101218.28;4890402;23;20711;-61
2023/06/18 09:08:38;;;;;;;9.38;6.53;;;;;;;22.80;57.16;101214.84;4844193;29;20033;-61
2023/06/18 09:11:05;;;;;;;7.18;6.47;;;;;;;22.83;57.70;101214.75;4967052;23;20061;-61
2023/06/18 09:13:30;;;;;;;7.85;7.15;;;;;;;22.83;55.92;101225.41;5013701;23;20140;-60
2023/06/18 09:18:29;;;;;;;8.50;7.70;;;;;;;22.90;57.17;101220.84;4888285;23;20052;-59
2023/06/18 09:23:27;;;;;;;6.93;6.32;;;;;;;22.98;59.09;101225.97;5015800;23;20068;-61
2023/06/18 09:25:54;;;;;;;8.88;7.22;;;;;;;23.01;59.20;101223.25;4877946;23;20062;-58
2023/06/18 09:31:00;;;;;;;7.93;7.13;;;;;;;23.08;57.70;101224.84;5182410;23;20114;-59
2023/06/18 09:35:59;;;;;;;7.82;7.05;;;;;;;23.13;58.43;101224.78;5284531;23;20285;-57
2023/06/18 09:38:32;;;;;;;8.05;7.35;;;;;;;23.15;59.11;101217.66;4843840;29;20093;-57
2023/06/18 09:40:58;;;;;;;7.97;7.28;;;;;;;23.15;58.44;101228.28;4844767;29;20119;-57
2023/06/18 09:43:31;;;;;;;8.18;7.50;;;;;;;23.13;59.69;101227.44;5183585;23;20533;-58
2023/06/18 09:45:57;;;;;;;7.75;6.93;;;;;;;23.13;57.95;101216.81;5146617;23;20028;-58
2023/06/18 09:48:23;;;;;;;8.32;7.25;;;;;;;23.15;60.76;101222.97;5187417;23;20025;-58
2023/06/18 09:53:22;;;;;;;8.18;7.38;;;;;;;23.12;61.91;101225.72;5155218;23;20079;-58
2023/06/18 09:55:48;;;;;;;8.32;7.50;;;;;;;23.10;58.67;101220.38;5027525;23;20774;-58
2023/06/18 10:01:03;;;;;;;9.05;8.15;;;;;;;23.04;58.97;101220.50;4813045;27;20501;-58
2023/06/18 10:03:28;;;;;;;9.55;8.65;;;;;;;23.03;64.26;101221.44;4845732;29;20025;-58
2023/06/18 10:08:53;;;;;;;10.07;9.07;;;;;;;22.68;73.27;101210.66;5135712;23;20065;-58
2023/06/18 10:14:23;;;;;;;13.15;11.88;;;;;;;22.21;75.21;101202.69;4885202;23;20061;-96
2023/06/18 10:16:51;;;;;;;10.50;9.60;;;;;;;22.13;75.65;101201.97;5121048;23;20559;-58
2023/06/18 10:19:25;;;;;;;11.00;10.10;;;;;;;22.13;77.09;101195.78;4860162;29;20088;-57
2023/06/18 10:21:59;;;;;;;10.13;9.32;;;;;;;22.11;75.19;101185.19;4863029;29;20089;-57
2023/06/18 10:27:17;;;;;;;10.68;9.73;;;;;;;22.32;75.31;101183.03;4932466;23;20080;-55
2023/06/18 10:29:43;;;;;;;10.70;9.80;;;;;;;22.29;75.60;101183.09;4852812;29;20622;-61
2023/06/18 10:32:08;;;;;;;10.88;9.77;;;;;;;22.29;70.12;101169.81;4853795;29;20037;-60
2023/06/18 10:34:35;;;;;;;10.05;9.05;;;;;;;22.30;72.75;101167.13;5044631;23;20077;-58
2023/06/18 10:37:01;;;;;;;10.05;9.15;;;;;;;22.36;71.43;101160.84;4875212;23;20073;-58
2023/06/18 10:39:28;;;;;;;9.63;8.70;;;;;;;22.43;70.61;101153.66;4978042;23;20145;-56
2023/06/18 10:44:57;;;;;;;10.82;9.88;;;;;;;22.68;72.63;101162.84;5017607;23;20763;-55
2023/06/18 10:47:30;;;;;;;11.85;10.77;;;;;;;22.75;69.87;101172.44;4995827;23;20087;-56
2023/06/18 10:52:32;;;;;;;41.10;37.47;;;;;;;22.96;69.24;101164.88;4840631;29;20046;-57
2023/06/18 10:55:09;;;;;;;12.27;11.13;;;;;;;23.12;71.21;101167.22;4842840;29;20054;-56
2023/06/18 10:57:45;;;;;;;9.90;9.10;;;;;;;23.17;68.86;101170.63;5024344;23;20058;-57
2023/06/18 11:00:17;;;;;;;8.82;7.97;;;;;;;23.17;63.42;101171.50;5001142;23;20141;-58
2023/06/18 11:02:43;;;;;;;9.55;8.65;;;;;;;23.23;63.73;101174.03;4921144;23;20553;-59
2023/06/18 11:05:16;;;;;;;8.68;7.88;;;;;;;23.21;61.23;101167.00;5144362;23;20538;-59
2023/06/18 11:07:41;;;;;;;8.90;7.95;;;;;;;23.29;62.63;101167.69;5110465;23;20027;-58
2023/06/18 11:10:07;;;;;;;9.10;8.30;;;;;;;23.43;61.45;101162.91;5138870;23;20126;-57
2023/06/18 11:12:37;;;;;;;8.32;7.68;;;;;;;23.49;64.81;101167.22;5014693;23;20173;-56
2023/06/18 11:15:19;;;;;;;8.20;7.47;;;;;;;23.57;66.46;101151.91;4938162;23;20102;-57
2023/06/18 11:20:19;;;;;;;7.75;7.15;;;;;;;23.41;58.67;101156.75;5047292;23;20067;-58
2023/06/18 11:22:45;;;;;;;8.68;7.90;;;;;;;23.37;61.29;101148.88;4996431;23;20053;-58
2023/06/18 11:25:12;;;;;;;6.85;6.25;;;;;;;23.39;63.97;101139.97;4954496;23;20061;-57
2023/06/18 11:33:05;;;;;;;8.48;7.68;;;;;;;23.35;65.41;101145.41;4965802;23;20755;-59
2023/06/18 11:35:30;;;;;;;8.38;7.68;;;;;;;23.30;64.90;101134.84;4994995;23;20057;-59
2023/06/18 11:40:30;;;;;;;8.77;7.97;;;;;;;23.34;65.22;101136.53;5131429;23;20609;-59
2023/06/18 11:42:56;;;;;;;8.32;7.63;;;;;;;23.35;64.10;101125.00;4945067;23;20060;-58
2023/06/18 11:45:21;;;;;;;8.48;7.72;;;;;;;23.25;64.09;101124.34;5015385;23;20053;-58
2023/06/18 11:47:49;;;;;;;8.63;7.82;;;;;;;23.20;65.02;101112.97;4850088;29;20354;-58
2023/06/18 11:50:15;;;;;;;9.55;8.57;;;;;;;23.22;65.52;101118.25;4993724;23;20134;-58
2023/06/18 11:55:14;;;;;;;9.60;8.80;;;;;;;23.21;65.47;101109.38;5076534;23;20032;-59
2023/06/18 12:00:15;;;;;;;9.02;8.20;;;;;;;23.36;67.58;101101.91;4912066;23;20062;-58
2023/06/18 12:02:41;;;;;;;8.93;8.02;;;;;;;23.47;68.73;101096.34;4942062;23;20061;-59
2023/06/18 12:05:07;;;;;;;10.00;9.00;;;;;;;23.59;63.21;101094.22;4989473;23;20065;-60
2023/06/18 12:07:33;;;;;;;11.00;10.00;;;;;;;23.70;62.83;101088.59;4929389;23;20035;-59
2023/06/18 12:10:05;;;;;;;10.73;9.67;;;;;;;23.84;61.77;101093.56;4888636;23;1107977;-59
2023/06/18 12:12:40;;;;;;;11.25;10.15;;;;;;;23.93;62.07;101088.00;4944615;23;21056;-60
2023/06/18 12:18:18;;;;;;;12.43;11.25;;;;;;;24.13;61.57;101084.78;5104721;23;20063;-60
2023/06/18 12:20:44;;;;;;;10.98;9.98;;;;;;;24.28;62.35;101077.25;5128520;23;20053;-60
2023/06/18 12:23:14;;;;;;;10.52;9.55;;;;;;;24.36;61.14;101079.66;4990267;23;20021;-60
2023/06/18 12:25:39;;;;;;;11.00;10.00;;;;;;;24.33;58.31;101074.44;5020753;23;20050;-61
2023/06/18 12:28:06;;;;;;;10.60;9.60;;;;;;;24.40;60.75;101079.53;4997094;23;20054;-60
2023/06/18 12:30:37;;;;;;;11.20;10.13;;;;;;;24.60;61.21;101080.75;5012090;23;20069;-59
2023/06/18 12:35:36;;;;;;;9.65;8.68;;;;;;;24.94;59.00;101069.00;4908692;23;20069;-59
2023/06/18 12:43:17;;;;;;;9.02;8.15;;;;;;;24.82;55.65;101068.50;5103721;23;20045;-60
2023/06/18 12:50:38;;;;;;;10.00;9.10;;;;;;;24.64;55.84;101067.28;5223368;23;20453;-59
2023/06/18 12:55:33;;;;;;;11.95;10.85;;;;;;;24.65;57.01;101057.47;5135406;23;20035;-59
2023/06/18 12:57:59;;;;;;;10.32;9.32;;;;;;;24.81;56.49;101056.09;5106581;23;20019;-61
2023/06/18 13:00:25;;;;;;;9.80;9.00;;;;;;;24.90;56.20;101064.72;5066966;23;20071;-59
2023/06/18 13:05:25;;;;;;;7.35;6.65;;;;;;;24.90;55.67;101059.38;5012454;23;20058;-58
2023/06/18 13:07:53;;;;;;;7.47;6.88;;;;;;;24.92;55.13;101058.38;5028166;23;20117;-59
2023/06/18 13:12:51;;;;;;;7.70;7.00;;;;;;;25.04;55.45;101062.47;5291652;23;20061;-59
2023/06/18 13:15:16;;;;;;;7.25;6.55;;;;;;;24.99;53.25;101059.94;5012389;23;20125;-58
2023/06/18 13:20:09;;;;;;;7.20;6.50;;;;;;;24.94;54.11;101061.00;4945745;23;20081;-59
2023/06/18 13:27:41;;;;;;;7.78;6.97;;;;;;;24.63;54.65;101054.00;4926766;23;20061;-61
2023/06/18 13:30:07;;;;;;;7.90;7.00;;;;;;;24.48;56.58;101053.53;5028722;23;20068;-59
2023/06/18 13:32:32;;;;;;;7.30;6.60;;;;;;;24.42;55.15;101047.50;5200109;23;20032;-59
2023/06/18 13:34:57;;;;;;;7.47;6.80;;;;;;;24.45;56.85;101042.13;5188337;23;20161;-59
2023/06/18 13:37:22;;;;;;;7.40;6.70;;;;;;;24.38;58.56;101036.09;5029422;23;20325;-59
2023/06/18 13:39:49;;;;;;;7.30;6.70;;;;;;;24.34;53.60;101039.78;5025212;23;20577;-59
2023/06/18 13:42:16;;;;;;;6.80;6.20;;;;;;;24.33;55.63;101042.47;5121464;23;20133;-59
2023/06/18 13:47:07;;;;;;;6.67;6.07;;;;;;;24.34;53.43;101031.78;5197269;23;21520;-59
2023/06/18 13:49:33;;;;;;;7.10;6.40;;;;;;;24.32;56.34;101028.31;5034800;23;20361;-59
2023/06/18 13:51:59;;;;;;;7.55;6.85;;;;;;;24.30;52.54;101028.34;5006874;23;20083;-59
2023/06/18 13:54:24;;;;;;;6.95;6.35;;;;;;;24.26;55.03;101028.47;4873937;23;20072;-58
2023/06/18 13:56:50;;;;;;;7.32;6.57;;;;;;;24.24;55.62;101020.53;5009672;23;20165;-59
2023/06/18 13:59:15;;;;;;;7.43;6.82;;;;;;;24.22;55.83;101021.53;5290491;23;20057;-59
2023/06/18 14:01:40;;;;;;;8.35;7.50;;;;;;;24.16;53.27;101017.25;5097420;23;20786;-59
2023/06/18 14:06:41;;;;;;;7.85;7.15;;;;;;;24.25;56.55;101019.63;5009883;23;20127;-61
2023/06/18 14:09:08;;;;;;;8.27;7.47;;;;;;;24.23;54.73;101007.28;5171902;23;20061;-59
2023/06/18 14:11:33;;;;;;;8.13;7.43;;;;;;;24.36;55.58;101010.44;5051775;23;20024;-58
2023/06/18 14:13:59;;;;;;;7.57;6.97;;;;;;;24.41;55.22;101003.19;4856191;29;20040;-59
2023/06/18 14:16:25;;;;;;;7.18;6.47;;;;;;;24.47;54.89;101006.50;4855911;29;20033;-59
2023/06/18 14:18:51;;;;;;;7.65;6.95;;;;;;;24.47;54.89;101006.50;5030144;23;20027;-58
2023/06/18 14:21:17;;;;;;;7.72;7.07;;;;;;;24.44;55.26;101006.59;4943843;23;20044;-58